sensor_id;sensor_type;location;lat;lon;timestamp;P1;durP1;ratioP1;P2;durP2;ratioP2
54360;SDS011;40258;53.936;27.540;2022-08-21T00:01:32;17.40;;;6.88;;
54360;SDS011;40258;53.936;27.540;2022-08-21T00:04:03;18.00;;;7.47;;
54360;SDS011;40258;53.936;27.540;2022-08-21T00:06:34;17.45;;;7.03;;
54360;SDS011;40258;53.936;27.540;2022-08-21T00:09:06;14.80;;;6.93;;
54360;SDS011;40258;53.936;27.540;2022-08-21T00:11:36;18.73;;;6.63;;
54360;SDS011;40258;53.936;27.540;2022-08-21T00:14:07;10.55;;;6.95;;
54360;SDS011;40258;53.936;27.540;2022-08-21T00:16:36;19.55;;;7.82;;
54360;SDS011;40258;53.936;27.540;2022-08-21T00:19:06;17.05;;;7.28;;
54360;SDS011;40258;53.936;27.540;2022-08-21T00:21:37;15.23;;;7.00;;
54360;SDS011;40258;53.936;27.540;2022-08-21T00:24:05;14.70;;;7.93;;
54360;SDS011;40258;53.936;27.540;2022-08-21T00:26:35;13.77;;;7.55;;
54360;SDS011;40258;53.936;27.540;2022-08-21T00:29:03;10.88;;;6.88;;
54360;SDS011;40258;53.936;27.540;2022-08-21T00:31:32;19.63;;;7.32;;
54360;SDS011;40258;53.936;27.540;2022-08-21T00:34:00;14.93;;;6.63;;
54360;SDS011;40258;53.936;27.540;2022-08-21T00:36:29;16.40;;;6.65;;
54360;SDS011;40258;53.936;27.540;2022-08-21T00:38:59;17.80;;;7.07;;
54360;SDS011;40258;53.936;27.540;2022-08-21T00:41:28;18.55;;;8.40;;
54360;SDS011;40258;53.936;27.540;2022-08-21T00:43:58;20.50;;;7.70;;
54360;SDS011;40258;53.936;27.540;2022-08-21T00:46:26;16.35;;;7.43;;
54360;SDS011;40258;53.936;27.540;2022-08-21T00:48:55;16.20;;;7.28;;
54360;SDS011;40258;53.936;27.540;2022-08-21T00:51:24;17.85;;;7.80;;
54360;SDS011;40258;53.936;27.540;2022-08-21T00:56:30;16.20;;;7.13;;
54360;SDS011;40258;53.936;27.540;2022-08-21T00:58:59;17.63;;;7.68;;
54360;SDS011;40258;53.936;27.540;2022-08-21T01:01:29;16.15;;;7.63;;
54360;SDS011;40258;53.936;27.540;2022-08-21T01:03:57;17.55;;;6.93;;
54360;SDS011;40258;53.936;27.540;2022-08-21T01:06:26;16.13;;;7.38;;
54360;SDS011;40258;53.936;27.540;2022-08-21T01:08:54;16.83;;;7.38;;
54360;SDS011;40258;53.936;27.540;2022-08-21T01:11:24;17.38;;;7.07;;
54360;SDS011;40258;53.936;27.540;2022-08-21T01:13:53;14.40;;;7.45;;
54360;SDS011;40258;53.936;27.540;2022-08-21T01:16:21;21.50;;;7.43;;
54360;SDS011;40258;53.936;27.540;2022-08-21T01:18:50;13.27;;;7.03;;
54360;SDS011;40258;53.936;27.540;2022-08-21T01:21:21;18.50;;;7.47;;
54360;SDS011;40258;53.936;27.540;2022-08-21T01:23:53;15.93;;;8.07;;
54360;SDS011;40258;53.936;27.540;2022-08-21T01:26:24;16.23;;;6.97;;
54360;SDS011;40258;53.936;27.540;2022-08-21T01:28:58;18.38;;;7.95;;
54360;SDS011;40258;53.936;27.540;2022-08-21T01:31:36;17.73;;;7.93;;
54360;SDS011;40258;53.936;27.540;2022-08-21T01:34:05;19.42;;;7.32;;
54360;SDS011;40258;53.936;27.540;2022-08-21T01:36:37;16.52;;;7.43;;
54360;SDS011;40258;53.936;27.540;2022-08-21T01:39:05;15.63;;;7.78;;
54360;SDS011;40258;53.936;27.540;2022-08-21T01:41:35;17.35;;;7.78;;
54360;SDS011;40258;53.936;27.540;2022-08-21T01:44:04;17.63;;;7.93;;
54360;SDS011;40258;53.936;27.540;2022-08-21T01:46:33;13.80;;;7.43;;
54360;SDS011;40258;53.936;27.540;2022-08-21T01:49:02;15.00;;;7.97;;
54360;SDS011;40258;53.936;27.540;2022-08-21T01:51:32;18.95;;;8.15;;
54360;SDS011;40258;53.936;27.540;2022-08-21T01:54:02;19.00;;;7.47;;
54360;SDS011;40258;53.936;27.540;2022-08-21T01:56:35;15.60;;;7.80;;
54360;SDS011;40258;53.936;27.540;2022-08-21T01:59:05;21.60;;;8.43;;
54360;SDS011;40258;53.936;27.540;2022-08-21T02:01:34;15.32;;;7.60;;
54360;SDS011;40258;53.936;27.540;2022-08-21T02:04:03;19.33;;;8.27;;
54360;SDS011;40258;53.936;27.540;2022-08-21T02:06:31;20.15;;;9.05;;
54360;SDS011;40258;53.936;27.540;2022-08-21T02:09:00;17.02;;;7.85;;
54360;SDS011;40258;53.936;27.540;2022-08-21T02:11:32;20.20;;;7.53;;
54360;SDS011;40258;53.936;27.540;2022-08-21T02:14:02;16.35;;;7.78;;
54360;SDS011;40258;53.936;27.540;2022-08-21T02:16:31;15.85;;;8.07;;
54360;SDS011;40258;53.936;27.540;2022-08-21T02:18:59;16.80;;;8.20;;
54360;SDS011;40258;53.936;27.540;2022-08-21T02:21:28;15.70;;;7.85;;
54360;SDS011;40258;53.936;27.540;2022-08-21T02:23:57;18.77;;;7.63;;
54360;SDS011;40258;53.936;27.540;2022-08-21T02:26:28;14.25;;;7.65;;
54360;SDS011;40258;53.936;27.540;2022-08-21T02:28:57;23.27;;;8.13;;
54360;SDS011;40258;53.936;27.540;2022-08-21T02:31:25;16.10;;;8.30;;
54360;SDS011;40258;53.936;27.540;2022-08-21T02:33:55;19.52;;;7.47;;
54360;SDS011;40258;53.936;27.540;2022-08-21T02:36:23;16.63;;;7.93;;
54360;SDS011;40258;53.936;27.540;2022-08-21T02:38:52;18.00;;;7.40;;
54360;SDS011;40258;53.936;27.540;2022-08-21T02:41:21;14.60;;;8.00;;
54360;SDS011;40258;53.936;27.540;2022-08-21T02:43:52;15.57;;;7.55;;
54360;SDS011;40258;53.936;27.540;2022-08-21T02:46:21;15.98;;;8.45;;
54360;SDS011;40258;53.936;27.540;2022-08-21T02:48:50;17.60;;;8.18;;
54360;SDS011;40258;53.936;27.540;2022-08-21T02:51:19;17.85;;;8.10;;
54360;SDS011;40258;53.936;27.540;2022-08-21T02:53:49;13.43;;;8.25;;
54360;SDS011;40258;53.936;27.540;2022-08-21T02:56:19;13.80;;;7.57;;
54360;SDS011;40258;53.936;27.540;2022-08-21T02:58:50;13.75;;;7.55;;
54360;SDS011;40258;53.936;27.540;2022-08-21T03:01:20;14.48;;;8.02;;
54360;SDS011;40258;53.936;27.540;2022-08-21T03:03:48;13.65;;;7.47;;
54360;SDS011;40258;53.936;27.540;2022-08-21T03:06:18;16.67;;;7.85;;
54360;SDS011;40258;53.936;27.540;2022-08-21T03:08:51;17.42;;;8.45;;
54360;SDS011;40258;53.936;27.540;2022-08-21T03:11:19;16.38;;;7.55;;
54360;SDS011;40258;53.936;27.540;2022-08-21T03:13:48;16.63;;;7.20;;
54360;SDS011;40258;53.936;27.540;2022-08-21T03:16:18;19.33;;;7.03;;
54360;SDS011;40258;53.936;27.540;2022-08-21T03:18:47;13.25;;;7.68;;
54360;SDS011;40258;53.936;27.540;2022-08-21T03:21:16;20.48;;;8.93;;
54360;SDS011;40258;53.936;27.540;2022-08-21T03:23:44;15.73;;;7.93;;
54360;SDS011;40258;53.936;27.540;2022-08-21T03:26:13;12.52;;;7.00;;
54360;SDS011;40258;53.936;27.540;2022-08-21T03:28:41;21.65;;;8.20;;
54360;SDS011;40258;53.936;27.540;2022-08-21T03:31:10;21.48;;;7.95;;
54360;SDS011;40258;53.936;27.540;2022-08-21T03:33:40;16.33;;;7.45;;
54360;SDS011;40258;53.936;27.540;2022-08-21T03:36:09;18.40;;;8.07;;
54360;SDS011;40258;53.936;27.540;2022-08-21T03:38:37;16.23;;;8.00;;
54360;SDS011;40258;53.936;27.540;2022-08-21T03:41:07;22.80;;;7.53;;
54360;SDS011;40258;53.936;27.540;2022-08-21T03:43:36;20.55;;;8.13;;
54360;SDS011;40258;53.936;27.540;2022-08-21T03:46:05;17.42;;;7.80;;
54360;SDS011;40258;53.936;27.540;2022-08-21T03:48:34;15.65;;;7.45;;
54360;SDS011;40258;53.936;27.540;2022-08-21T03:51:05;15.85;;;7.10;;
54360;SDS011;40258;53.936;27.540;2022-08-21T03:53:34;14.98;;;7.28;;
54360;SDS011;40258;53.936;27.540;2022-08-21T03:56:03;15.93;;;6.90;;
54360;SDS011;40258;53.936;27.540;2022-08-21T03:58:33;21.73;;;7.40;;
54360;SDS011;40258;53.936;27.540;2022-08-21T04:01:02;14.77;;;7.03;;
54360;SDS011;40258;53.936;27.540;2022-08-21T04:03:34;18.98;;;7.78;;
54360;SDS011;40258;53.936;27.540;2022-08-21T04:06:06;12.88;;;7.18;;
54360;SDS011;40258;53.936;27.540;2022-08-21T04:08:35;15.68;;;7.38;;
54360;SDS011;40258;53.936;27.540;2022-08-21T04:11:04;20.80;;;7.90;;
54360;SDS011;40258;53.936;27.540;2022-08-21T04:13:33;16.08;;;7.25;;
54360;SDS011;40258;53.936;27.540;2022-08-21T04:16:02;16.05;;;6.93;;
54360;SDS011;40258;53.936;27.540;2022-08-21T04:18:32;15.30;;;6.55;;
54360;SDS011;40258;53.936;27.540;2022-08-21T04:21:00;15.73;;;7.30;;
54360;SDS011;40258;53.936;27.540;2022-08-21T04:23:32;17.02;;;7.25;;
54360;SDS011;40258;53.936;27.540;2022-08-21T04:26:00;14.60;;;6.80;;
54360;SDS011;40258;53.936;27.540;2022-08-21T04:28:30;17.42;;;7.22;;
54360;SDS011;40258;53.936;27.540;2022-08-21T04:30:59;17.77;;;6.88;;
54360;SDS011;40258;53.936;27.540;2022-08-21T04:33:28;18.58;;;7.45;;
54360;SDS011;40258;53.936;27.540;2022-08-21T04:35:56;17.23;;;7.30;;
54360;SDS011;40258;53.936;27.540;2022-08-21T04:38:25;14.35;;;6.95;;
54360;SDS011;40258;53.936;27.540;2022-08-21T04:40:55;19.60;;;6.85;;
54360;SDS011;40258;53.936;27.540;2022-08-21T04:43:24;18.77;;;7.40;;
54360;SDS011;40258;53.936;27.540;2022-08-21T04:45:54;12.60;;;6.85;;
54360;SDS011;40258;53.936;27.540;2022-08-21T04:48:22;19.60;;;6.90;;
54360;SDS011;40258;53.936;27.540;2022-08-21T04:50:52;16.08;;;6.78;;
54360;SDS011;40258;53.936;27.540;2022-08-21T04:53:30;15.75;;;6.85;;
54360;SDS011;40258;53.936;27.540;2022-08-21T04:56:05;15.43;;;7.00;;
54360;SDS011;40258;53.936;27.540;2022-08-21T04:58:41;13.23;;;6.65;;
54360;SDS011;40258;53.936;27.540;2022-08-21T05:01:11;16.95;;;6.93;;
54360;SDS011;40258;53.936;27.540;2022-08-21T05:03:48;17.75;;;6.50;;
54360;SDS011;40258;53.936;27.540;2022-08-21T05:06:21;21.95;;;6.65;;
54360;SDS011;40258;53.936;27.540;2022-08-21T05:08:51;15.27;;;5.85;;
54360;SDS011;40258;53.936;27.540;2022-08-21T05:11:24;19.60;;;7.53;;
54360;SDS011;40258;53.936;27.540;2022-08-21T05:13:53;15.70;;;5.70;;
54360;SDS011;40258;53.936;27.540;2022-08-21T05:16:22;15.15;;;6.38;;
54360;SDS011;40258;53.936;27.540;2022-08-21T05:18:50;20.30;;;6.93;;
54360;SDS011;40258;53.936;27.540;2022-08-21T05:21:19;16.20;;;6.32;;
54360;SDS011;40258;53.936;27.540;2022-08-21T05:23:48;12.13;;;5.78;;
54360;SDS011;40258;53.936;27.540;2022-08-21T05:26:16;14.07;;;6.00;;
54360;SDS011;40258;53.936;27.540;2022-08-21T05:28:46;15.65;;;6.68;;
54360;SDS011;40258;53.936;27.540;2022-08-21T05:31:15;19.30;;;6.45;;
54360;SDS011;40258;53.936;27.540;2022-08-21T05:33:43;13.63;;;7.22;;
54360;SDS011;40258;53.936;27.540;2022-08-21T05:36:12;17.17;;;6.75;;
54360;SDS011;40258;53.936;27.540;2022-08-21T05:38:40;18.15;;;7.00;;
54360;SDS011;40258;53.936;27.540;2022-08-21T05:41:09;13.15;;;5.70;;
54360;SDS011;40258;53.936;27.540;2022-08-21T05:43:38;14.88;;;6.53;;
54360;SDS011;40258;53.936;27.540;2022-08-21T05:46:08;19.75;;;6.28;;
54360;SDS011;40258;53.936;27.540;2022-08-21T05:48:37;13.70;;;6.38;;
54360;SDS011;40258;53.936;27.540;2022-08-21T05:51:06;11.65;;;5.88;;
54360;SDS011;40258;53.936;27.540;2022-08-21T05:53:38;15.68;;;5.95;;
54360;SDS011;40258;53.936;27.540;2022-08-21T05:56:08;15.73;;;5.80;;
54360;SDS011;40258;53.936;27.540;2022-08-21T05:58:38;14.23;;;5.88;;
54360;SDS011;40258;53.936;27.540;2022-08-21T06:01:08;14.77;;;5.85;;
54360;SDS011;40258;53.936;27.540;2022-08-21T06:03:38;16.75;;;6.38;;
54360;SDS011;40258;53.936;27.540;2022-08-21T06:06:08;15.13;;;6.78;;
54360;SDS011;40258;53.936;27.540;2022-08-21T06:08:37;16.50;;;6.82;;
54360;SDS011;40258;53.936;27.540;2022-08-21T06:11:05;12.93;;;6.43;;
54360;SDS011;40258;53.936;27.540;2022-08-21T06:13:35;14.40;;;5.68;;
54360;SDS011;40258;53.936;27.540;2022-08-21T06:16:06;19.00;;;6.22;;
54360;SDS011;40258;53.936;27.540;2022-08-21T06:18:39;16.10;;;5.82;;
54360;SDS011;40258;53.936;27.540;2022-08-21T06:21:08;17.33;;;6.28;;
54360;SDS011;40258;53.936;27.540;2022-08-21T06:23:37;17.58;;;6.50;;
54360;SDS011;40258;53.936;27.540;2022-08-21T06:26:06;18.13;;;6.38;;
54360;SDS011;40258;53.936;27.540;2022-08-21T06:28:36;14.55;;;5.93;;
54360;SDS011;40258;53.936;27.540;2022-08-21T06:31:11;13.65;;;6.97;;
54360;SDS011;40258;53.936;27.540;2022-08-21T06:33:43;14.45;;;5.70;;
54360;SDS011;40258;53.936;27.540;2022-08-21T06:36:12;18.17;;;6.93;;
54360;SDS011;40258;53.936;27.540;2022-08-21T06:38:41;18.27;;;6.20;;
54360;SDS011;40258;53.936;27.540;2022-08-21T06:41:10;17.02;;;6.18;;
54360;SDS011;40258;53.936;27.540;2022-08-21T06:43:39;17.75;;;5.97;;
54360;SDS011;40258;53.936;27.540;2022-08-21T06:46:08;12.82;;;6.13;;
54360;SDS011;40258;53.936;27.540;2022-08-21T06:48:38;14.50;;;6.40;;
54360;SDS011;40258;53.936;27.540;2022-08-21T06:51:07;13.30;;;5.50;;
54360;SDS011;40258;53.936;27.540;2022-08-21T06:53:35;18.50;;;5.75;;
54360;SDS011;40258;53.936;27.540;2022-08-21T06:56:04;15.93;;;6.30;;
54360;SDS011;40258;53.936;27.540;2022-08-21T06:58:33;16.65;;;6.10;;
54360;SDS011;40258;53.936;27.540;2022-08-21T07:01:02;16.73;;;6.68;;
54360;SDS011;40258;53.936;27.540;2022-08-21T07:03:32;14.73;;;5.55;;
54360;SDS011;40258;53.936;27.540;2022-08-21T07:06:05;16.92;;;6.57;;
54360;SDS011;40258;53.936;27.540;2022-08-21T07:08:36;16.23;;;5.25;;
54360;SDS011;40258;53.936;27.540;2022-08-21T07:11:07;14.23;;;5.40;;
54360;SDS011;40258;53.936;27.540;2022-08-21T07:13:41;21.15;;;6.15;;
54360;SDS011;40258;53.936;27.540;2022-08-21T07:16:10;13.48;;;5.68;;
54360;SDS011;40258;53.936;27.540;2022-08-21T07:18:39;12.60;;;5.88;;
54360;SDS011;40258;53.936;27.540;2022-08-21T07:21:09;15.50;;;5.40;;
54360;SDS011;40258;53.936;27.540;2022-08-21T07:23:39;12.77;;;5.93;;
54360;SDS011;40258;53.936;27.540;2022-08-21T07:26:12;18.77;;;6.47;;
54360;SDS011;40258;53.936;27.540;2022-08-21T07:28:44;15.38;;;6.03;;
54360;SDS011;40258;53.936;27.540;2022-08-21T07:31:13;14.43;;;5.55;;
54360;SDS011;40258;53.936;27.540;2022-08-21T07:33:44;16.02;;;5.82;;
54360;SDS011;40258;53.936;27.540;2022-08-21T07:36:14;16.85;;;6.05;;
54360;SDS011;40258;53.936;27.540;2022-08-21T07:38:43;15.45;;;5.82;;
54360;SDS011;40258;53.936;27.540;2022-08-21T07:41:13;16.77;;;5.35;;
54360;SDS011;40258;53.936;27.540;2022-08-21T07:43:44;16.75;;;6.25;;
54360;SDS011;40258;53.936;27.540;2022-08-21T07:46:14;15.10;;;5.90;;
54360;SDS011;40258;53.936;27.540;2022-08-21T07:48:43;14.07;;;5.72;;
54360;SDS011;40258;53.936;27.540;2022-08-21T07:51:13;12.52;;;5.32;;
54360;SDS011;40258;53.936;27.540;2022-08-21T07:53:47;19.60;;;5.63;;
54360;SDS011;40258;53.936;27.540;2022-08-21T07:56:17;13.85;;;5.55;;
54360;SDS011;40258;53.936;27.540;2022-08-21T07:58:47;12.13;;;5.60;;
54360;SDS011;40258;53.936;27.540;2022-08-21T08:01:16;15.95;;;5.22;;
54360;SDS011;40258;53.936;27.540;2022-08-21T08:03:45;14.52;;;5.55;;
54360;SDS011;40258;53.936;27.540;2022-08-21T08:06:16;16.33;;;5.53;;
54360;SDS011;40258;53.936;27.540;2022-08-21T08:08:45;15.90;;;5.30;;
54360;SDS011;40258;53.936;27.540;2022-08-21T08:11:14;14.10;;;5.43;;
54360;SDS011;40258;53.936;27.540;2022-08-21T08:13:44;18.98;;;6.15;;
54360;SDS011;40258;53.936;27.540;2022-08-21T08:16:15;8.70;;;4.43;;
54360;SDS011;40258;53.936;27.540;2022-08-21T08:18:44;21.42;;;5.60;;
54360;SDS011;40258;53.936;27.540;2022-08-21T08:21:13;15.70;;;4.65;;
54360;SDS011;40258;53.936;27.540;2022-08-21T08:23:44;16.02;;;4.88;;
54360;SDS011;40258;53.936;27.540;2022-08-21T08:26:14;18.58;;;5.65;;
54360;SDS011;40258;53.936;27.540;2022-08-21T08:28:42;14.45;;;4.72;;
54360;SDS011;40258;53.936;27.540;2022-08-21T08:31:13;12.30;;;5.05;;
54360;SDS011;40258;53.936;27.540;2022-08-21T08:33:42;12.77;;;4.95;;
54360;SDS011;40258;53.936;27.540;2022-08-21T08:36:16;11.05;;;4.65;;
54360;SDS011;40258;53.936;27.540;2022-08-21T08:38:46;17.85;;;4.95;;
54360;SDS011;40258;53.936;27.540;2022-08-21T08:41:15;12.82;;;4.93;;
54360;SDS011;40258;53.936;27.540;2022-08-21T08:43:48;15.18;;;4.78;;
54360;SDS011;40258;53.936;27.540;2022-08-21T08:46:22;14.55;;;5.05;;
54360;SDS011;40258;53.936;27.540;2022-08-21T08:48:58;13.68;;;5.18;;
54360;SDS011;40258;53.936;27.540;2022-08-21T08:51:38;13.07;;;4.50;;
54360;SDS011;40258;53.936;27.540;2022-08-21T08:54:14;20.35;;;5.63;;
54360;SDS011;40258;53.936;27.540;2022-08-21T08:56:50;14.55;;;4.70;;
54360;SDS011;40258;53.936;27.540;2022-08-21T08:59:22;15.77;;;5.63;;
54360;SDS011;40258;53.936;27.540;2022-08-21T09:02:00;16.65;;;4.78;;
54360;SDS011;40258;53.936;27.540;2022-08-21T09:04:29;18.48;;;5.43;;
54360;SDS011;40258;53.936;27.540;2022-08-21T09:07:04;11.95;;;4.80;;
54360;SDS011;40258;53.936;27.540;2022-08-21T09:09:48;15.25;;;5.03;;
54360;SDS011;40258;53.936;27.540;2022-08-21T09:12:45;12.82;;;4.82;;
54360;SDS011;40258;53.936;27.540;2022-08-21T09:15:27;13.32;;;5.15;;
54360;SDS011;40258;53.936;27.540;2022-08-21T09:21:03;19.10;;;5.00;;
54360;SDS011;40258;53.936;27.540;2022-08-21T09:23:49;13.95;;;5.00;;
54360;SDS011;40258;53.936;27.540;2022-08-21T09:26:29;13.50;;;5.05;;
54360;SDS011;40258;53.936;27.540;2022-08-21T09:29:15;16.23;;;4.57;;
54360;SDS011;40258;53.936;27.540;2022-08-21T09:31:49;12.48;;;4.80;;
54360;SDS011;40258;53.936;27.540;2022-08-21T09:34:23;12.80;;;4.50;;
54360;SDS011;40258;53.936;27.540;2022-08-21T09:36:55;13.38;;;4.07;;
54360;SDS011;40258;53.936;27.540;2022-08-21T09:39:28;12.82;;;4.88;;
54360;SDS011;40258;53.936;27.540;2022-08-21T09:41:59;14.70;;;5.55;;
54360;SDS011;40258;53.936;27.540;2022-08-21T09:44:32;16.33;;;4.78;;
54360;SDS011;40258;53.936;27.540;2022-08-21T09:47:06;13.73;;;4.13;;
54360;SDS011;40258;53.936;27.540;2022-08-21T09:49:37;16.67;;;4.70;;
54360;SDS011;40258;53.936;27.540;2022-08-21T09:52:15;16.73;;;4.85;;
54360;SDS011;40258;53.936;27.540;2022-08-21T09:54:50;17.70;;;4.85;;
54360;SDS011;40258;53.936;27.540;2022-08-21T09:57:22;13.93;;;4.95;;
54360;SDS011;40258;53.936;27.540;2022-08-21T10:00:08;13.57;;;4.47;;
54360;SDS011;40258;53.936;27.540;2022-08-21T10:02:46;11.60;;;4.22;;
54360;SDS011;40258;53.936;27.540;2022-08-21T10:05:16;13.50;;;4.53;;
54360;SDS011;40258;53.936;27.540;2022-08-21T10:07:48;12.32;;;3.85;;
54360;SDS011;40258;53.936;27.540;2022-08-21T10:10:20;11.18;;;3.90;;
54360;SDS011;40258;53.936;27.540;2022-08-21T10:12:54;13.05;;;4.72;;
54360;SDS011;40258;53.936;27.540;2022-08-21T10:15:34;17.15;;;4.70;;
54360;SDS011;40258;53.936;27.540;2022-08-21T10:18:26;13.77;;;4.13;;
54360;SDS011;40258;53.936;27.540;2022-08-21T10:21:05;11.75;;;4.43;;
54360;SDS011;40258;53.936;27.540;2022-08-21T10:23:51;16.95;;;4.70;;
54360;SDS011;40258;53.936;27.540;2022-08-21T10:26:38;13.98;;;4.70;;
54360;SDS011;40258;53.936;27.540;2022-08-21T10:29:19;12.55;;;4.38;;
54360;SDS011;40258;53.936;27.540;2022-08-21T10:32:05;12.75;;;4.53;;
54360;SDS011;40258;53.936;27.540;2022-08-21T10:34:51;15.55;;;4.50;;
54360;SDS011;40258;53.936;27.540;2022-08-21T10:37:31;14.93;;;4.50;;
54360;SDS011;40258;53.936;27.540;2022-08-21T10:40:14;16.17;;;4.78;;
54360;SDS011;40258;53.936;27.540;2022-08-21T10:42:56;21.77;;;5.32;;
54360;SDS011;40258;53.936;27.540;2022-08-21T10:45:45;12.30;;;4.28;;
54360;SDS011;40258;53.936;27.540;2022-08-21T10:48:24;19.65;;;5.40;;
54360;SDS011;40258;53.936;27.540;2022-08-21T10:51:02;13.73;;;4.60;;
54360;SDS011;40258;53.936;27.540;2022-08-21T10:53:46;17.90;;;5.60;;
54360;SDS011;40258;53.936;27.540;2022-08-21T10:56:29;15.63;;;5.10;;
54360;SDS011;40258;53.936;27.540;2022-08-21T10:59:04;17.75;;;5.25;;
54360;SDS011;40258;53.936;27.540;2022-08-21T11:01:53;20.17;;;4.82;;
54360;SDS011;40258;53.936;27.540;2022-08-21T11:04:31;16.75;;;4.97;;
54360;SDS011;40258;53.936;27.540;2022-08-21T11:07:15;19.05;;;5.57;;
54360;SDS011;40258;53.936;27.540;2022-08-21T11:09:50;16.15;;;4.53;;
54360;SDS011;40258;53.936;27.540;2022-08-21T11:12:23;14.70;;;4.90;;
54360;SDS011;40258;53.936;27.540;2022-08-21T11:14:58;15.60;;;4.72;;
54360;SDS011;40258;53.936;27.540;2022-08-21T11:17:36;13.57;;;4.68;;
54360;SDS011;40258;53.936;27.540;2022-08-21T11:20:13;21.25;;;5.20;;
54360;SDS011;40258;53.936;27.540;2022-08-21T11:22:58;13.95;;;4.30;;
54360;SDS011;40258;53.936;27.540;2022-08-21T11:25:35;11.43;;;4.38;;
54360;SDS011;40258;53.936;27.540;2022-08-21T11:28:09;13.65;;;4.63;;
54360;SDS011;40258;53.936;27.540;2022-08-21T11:31:02;13.25;;;4.32;;
54360;SDS011;40258;53.936;27.540;2022-08-21T11:33:51;12.63;;;4.53;;
54360;SDS011;40258;53.936;27.540;2022-08-21T11:36:38;11.85;;;3.97;;
54360;SDS011;40258;53.936;27.540;2022-08-21T11:39:20;13.82;;;4.80;;
54360;SDS011;40258;53.936;27.540;2022-08-21T11:42:00;12.88;;;4.85;;
54360;SDS011;40258;53.936;27.540;2022-08-21T11:44:41;16.00;;;5.03;;
54360;SDS011;40258;53.936;27.540;2022-08-21T11:47:24;17.15;;;4.68;;
54360;SDS011;40258;53.936;27.540;2022-08-21T11:50:07;17.55;;;4.88;;
54360;SDS011;40258;53.936;27.540;2022-08-21T11:52:43;20.33;;;5.47;;
54360;SDS011;40258;53.936;27.540;2022-08-21T11:55:19;17.13;;;4.65;;
54360;SDS011;40258;53.936;27.540;2022-08-21T11:57:57;16.50;;;4.70;;
54360;SDS011;40258;53.936;27.540;2022-08-21T12:03:09;18.75;;;4.82;;
54360;SDS011;40258;53.936;27.540;2022-08-21T12:05:42;14.88;;;4.28;;
54360;SDS011;40258;53.936;27.540;2022-08-21T12:08:29;15.90;;;4.10;;
54360;SDS011;40258;53.936;27.540;2022-08-21T12:11:03;13.25;;;4.18;;
54360;SDS011;40258;53.936;27.540;2022-08-21T12:13:36;17.63;;;4.68;;
54360;SDS011;40258;53.936;27.540;2022-08-21T12:16:27;16.83;;;4.55;;
54360;SDS011;40258;53.936;27.540;2022-08-21T12:19:07;12.35;;;4.55;;
54360;SDS011;40258;53.936;27.540;2022-08-21T12:21:47;18.23;;;4.45;;
54360;SDS011;40258;53.936;27.540;2022-08-21T12:24:32;16.33;;;4.32;;
54360;SDS011;40258;53.936;27.540;2022-08-21T12:27:13;17.02;;;4.20;;
54360;SDS011;40258;53.936;27.540;2022-08-21T12:29:56;19.83;;;4.72;;
54360;SDS011;40258;53.936;27.540;2022-08-21T12:32:29;20.80;;;5.32;;
54360;SDS011;40258;53.936;27.540;2022-08-21T12:35:13;15.93;;;4.88;;
54360;SDS011;40258;53.936;27.540;2022-08-21T12:37:45;14.85;;;4.10;;
54360;SDS011;40258;53.936;27.540;2022-08-21T12:40:18;15.00;;;4.40;;
54360;SDS011;40258;53.936;27.540;2022-08-21T12:42:58;16.58;;;5.43;;
54360;SDS011;40258;53.936;27.540;2022-08-21T12:45:30;17.90;;;5.13;;
54360;SDS011;40258;53.936;27.540;2022-08-21T12:48:02;18.30;;;5.20;;
54360;SDS011;40258;53.936;27.540;2022-08-21T12:50:40;14.35;;;4.57;;
54360;SDS011;40258;53.936;27.540;2022-08-21T12:53:19;14.40;;;4.38;;
54360;SDS011;40258;53.936;27.540;2022-08-21T12:55:55;12.18;;;3.83;;
54360;SDS011;40258;53.936;27.540;2022-08-21T12:58:27;20.95;;;4.68;;
54360;SDS011;40258;53.936;27.540;2022-08-21T13:00:59;19.65;;;5.90;;
54360;SDS011;40258;53.936;27.540;2022-08-21T13:03:34;17.25;;;5.20;;
54360;SDS011;40258;53.936;27.540;2022-08-21T13:06:06;21.85;;;5.03;;
54360;SDS011;40258;53.936;27.540;2022-08-21T13:08:42;16.27;;;4.35;;
54360;SDS011;40258;53.936;27.540;2022-08-21T13:11:13;14.82;;;4.25;;
54360;SDS011;40258;53.936;27.540;2022-08-21T13:13:48;12.00;;;4.47;;
54360;SDS011;40258;53.936;27.540;2022-08-21T13:16:19;16.90;;;6.53;;
54360;SDS011;40258;53.936;27.540;2022-08-21T13:18:55;18.90;;;6.40;;
54360;SDS011;40258;53.936;27.540;2022-08-21T13:21:29;16.58;;;5.43;;
54360;SDS011;40258;53.936;27.540;2022-08-21T13:24:08;27.17;;;5.30;;
54360;SDS011;40258;53.936;27.540;2022-08-21T13:26:42;17.75;;;4.82;;
54360;SDS011;40258;53.936;27.540;2022-08-21T13:29:12;13.35;;;4.65;;
54360;SDS011;40258;53.936;27.540;2022-08-21T13:31:46;19.40;;;7.20;;
54360;SDS011;40258;53.936;27.540;2022-08-21T13:34:19;23.48;;;5.50;;
54360;SDS011;40258;53.936;27.540;2022-08-21T13:36:51;20.02;;;5.55;;
54360;SDS011;40258;53.936;27.540;2022-08-21T13:39:24;12.30;;;4.78;;
54360;SDS011;40258;53.936;27.540;2022-08-21T13:41:54;14.23;;;4.85;;
54360;SDS011;40258;53.936;27.540;2022-08-21T13:44:32;19.25;;;6.47;;
54360;SDS011;40258;53.936;27.540;2022-08-21T13:47:04;20.77;;;6.85;;
54360;SDS011;40258;53.936;27.540;2022-08-21T13:49:34;17.38;;;4.82;;
54360;SDS011;40258;53.936;27.540;2022-08-21T13:52:14;16.30;;;5.03;;
54360;SDS011;40258;53.936;27.540;2022-08-21T13:54:51;16.33;;;4.88;;
54360;SDS011;40258;53.936;27.540;2022-08-21T13:57:27;15.95;;;4.43;;
54360;SDS011;40258;53.936;27.540;2022-08-21T14:00:11;14.43;;;4.40;;
54360;SDS011;40258;53.936;27.540;2022-08-21T14:02:44;15.18;;;4.22;;
54360;SDS011;40258;53.936;27.540;2022-08-21T14:05:19;15.25;;;4.05;;
54360;SDS011;40258;53.936;27.540;2022-08-21T14:07:52;15.30;;;4.20;;
54360;SDS011;40258;53.936;27.540;2022-08-21T14:10:29;17.48;;;4.25;;
54360;SDS011;40258;53.936;27.540;2022-08-21T14:12:59;13.75;;;4.05;;
54360;SDS011;40258;53.936;27.540;2022-08-21T14:15:32;17.35;;;3.63;;
54360;SDS011;40258;53.936;27.540;2022-08-21T14:18:07;23.00;;;4.65;;
54360;SDS011;40258;53.936;27.540;2022-08-21T14:20:40;18.58;;;3.72;;
54360;SDS011;40258;53.936;27.540;2022-08-21T14:23:10;13.00;;;3.45;;
54360;SDS011;40258;53.936;27.540;2022-08-21T14:25:50;16.40;;;3.53;;
54360;SDS011;40258;53.936;27.540;2022-08-21T14:28:21;23.10;;;3.97;;
54360;SDS011;40258;53.936;27.540;2022-08-21T14:30:55;14.23;;;3.40;;
54360;SDS011;40258;53.936;27.540;2022-08-21T14:33:25;17.80;;;4.10;;
54360;SDS011;40258;53.936;27.540;2022-08-21T14:35:56;14.07;;;3.40;;
54360;SDS011;40258;53.936;27.540;2022-08-21T14:38:28;15.30;;;3.58;;
54360;SDS011;40258;53.936;27.540;2022-08-21T14:40:58;15.50;;;3.97;;
54360;SDS011;40258;53.936;27.540;2022-08-21T14:43:31;10.88;;;3.00;;
54360;SDS011;40258;53.936;27.540;2022-08-21T14:46:00;16.15;;;4.72;;
54360;SDS011;40258;53.936;27.540;2022-08-21T14:48:28;16.85;;;3.90;;
54360;SDS011;40258;53.936;27.540;2022-08-21T14:50:57;15.93;;;3.63;;
54360;SDS011;40258;53.936;27.540;2022-08-21T14:53:28;16.50;;;4.68;;
54360;SDS011;40258;53.936;27.540;2022-08-21T14:55:56;13.70;;;3.92;;
54360;SDS011;40258;53.936;27.540;2022-08-21T14:58:35;14.88;;;4.45;;
54360;SDS011;40258;53.936;27.540;2022-08-21T15:01:07;12.27;;;3.78;;